Impacts TAF Board
For situational awareness. Not to be used for flight planning purposes.
IDs:

KGRK - Killeen-Ft Hood Rgnl, TX, US

Issued at 1600 UTC 02 Oct 2022
Updated at 2215 UTC 02 Oct 2022
Potential Impact None Slight Moderate High
Time2155Z 02/23Z 03/00Z 03/01Z 03/02Z 03/03Z 03/04Z 03/05Z 03/06Z 03/07Z 03/08Z 03/09Z 03/10Z 03/11Z>>
Type OBS PRVL PRVL PRVL PRVL PRVL PRVL PRVL PRVL PRVL PRVL PRVL PRVL PRVL
VIS 10 >6 >6 >6 >6 >6 >6 >6 >6 >6 >6 >6 >6 >6
CIG -- -- -- -- -- -- -- -- -- -- -- -- -- --
Cover CLR SKC SKC SKC SKC SKC SKC SKC SKC SKC SKC SKC SKC SKC
FltCat VFR VFR VFR VFR VFR VFR VFR VFR VFR VFR VFR VFR VFR VFR
WX -- -- -- -- -- -- -- -- -- -- -- -- -- --
WDir 60 70 70 70 70 70 70 70 70 70 70 70 70 70
WSpd 5 6 6 6 6 6 6 6 6 6 6 6 6 6
WGst -- -- -- -- -- -- -- -- -- -- -- -- -- --
WSHgt -- -- -- -- -- -- -- -- -- -- -- -- -- --
WSDir -- -- -- -- -- -- -- -- -- -- -- -- -- --
WSSpd -- -- -- -- -- -- -- -- -- -- -- -- -- --
R15/33
XWnd 5 6 6 6 6 6 6 6 6 6 6 6 6 6
HWnd -1 0 0 0 0 0 0 0 0 0 0 0 0 0
Raw TAF
TAF KGRK 021600Z 0216/0322 07006KT 9999 SKC QNH3009INS TX29/0221Z TN11/0312Z

Raw METAR
KGRK 022155Z AUTO 06005KT 10SM CLR 28/03 A3007 RMK AO2 SLP175 T02840025
KGRK 022055Z AUTO 07008KT 10SM CLR 28/04 A3008 RMK AO2 SLP179 T02820044 57022
KGRK 021955Z AUTO 15005KT 10SM CLR 28/04 A3010 RMK AO2 SLP184 T02770040

METAR Board
Radar Display
Forecast Discussion
For situational awareness. Not to be used for flight planning purposes.